Time,TemperatureF,DewpointF,PressureIn,WindDirection,WindDirectionDegrees,WindSpeedMPH,WindSpeedGustMPH,Humidity,HourlyPrecipIn,Conditions,Clouds,dailyrainin,SoftwareType,DateUTC
2013-05-14 00:02:00,58.0,38.0,29.72,North,-999,-999.0,-999.0,47,-99.99,,,-99.99,,2013-05-14 05:02:00,
2013-05-14 00:12:00,58.0,38.0,29.72,North,-999,-999.0,-999.0,47,-99.99,,,-99.99,,2013-05-14 05:12:00,
2013-05-14 00:22:00,59.0,39.0,29.72,North,-999,-999.0,-999.0,47,-99.99,,,-99.99,,2013-05-14 05:22:00,
2013-05-14 00:32:00,59.0,39.0,29.69,North,-999,-999.0,-999.0,48,-99.99,,,-99.99,,2013-05-14 05:32:00,
2013-05-14 00:42:00,59.0,39.0,29.69,North,-999,-999.0,-999.0,48,-99.99,,,-99.99,,2013-05-14 05:42:00,
2013-05-14 00:52:00,59.0,40.0,29.69,North,-999,-999.0,-999.0,49,-99.99,,,-99.99,,2013-05-14 05:52:00,
2013-05-14 01:01:00,59.0,40.0,29.69,North,-999,-999.0,-999.0,49,-99.99,,,-99.99,,2013-05-14 06:01:00,
2013-05-14 01:12:00,59.0,40.0,29.69,North,-999,-999.0,-999.0,49,-99.99,,,-99.99,,2013-05-14 06:12:00,
2013-05-14 01:22:00,58.0,39.0,29.69,North,-999,-999.0,-999.0,49,-99.99,,,-99.99,,2013-05-14 06:22:00,
2013-05-14 01:32:00,58.0,39.0,29.66,North,-999,-999.0,-999.0,50,-99.99,,,-99.99,,2013-05-14 06:32:00,
2013-05-14 01:42:00,58.0,39.0,29.66,North,-999,-999.0,-999.0,50,-99.99,,,-99.99,,2013-05-14 06:42:00,
2013-05-14 01:51:00,58.0,39.0,29.66,North,-999,-999.0,-999.0,50,-99.99,,,-99.99,,2013-05-14 06:51:00,
2013-05-14 02:02:00,57.0,40.0,29.66,North,-999,-999.0,-999.0,52,-99.99,,,-99.99,,2013-05-14 07:02:00,
2013-05-14 02:11:00,57.0,40.0,29.66,North,-999,-999.0,-999.0,52,-99.99,,,-99.99,,2013-05-14 07:11:00,
2013-05-14 02:21:00,57.0,40.0,29.66,North,-999,-999.0,-999.0,53,-99.99,,,-99.99,,2013-05-14 07:21:00,
2013-05-14 02:32:00,57.0,40.0,29.66,North,-999,-999.0,-999.0,53,-99.99,,,-99.99,,2013-05-14 07:32:00,
2013-05-14 02:42:00,57.0,41.0,29.66,North,-999,-999.0,-999.0,55,-99.99,,,-99.99,,2013-05-14 07:42:00,
2013-05-14 02:52:00,57.0,41.0,29.66,North,-999,-999.0,-999.0,55,-99.99,,,-99.99,,2013-05-14 07:52:00,
2013-05-14 03:02:00,57.0,41.0,29.66,North,-999,-999.0,-999.0,54,-99.99,,,-99.99,,2013-05-14 08:02:00,
2013-05-14 03:11:00,57.0,41.0,29.66,North,-999,-999.0,-999.0,54,-99.99,,,-99.99,,2013-05-14 08:11:00,
2013-05-14 03:21:00,56.0,41.0,29.66,North,-999,-999.0,-999.0,56,-99.99,,,-99.99,,2013-05-14 08:21:00,
2013-05-14 03:31:00,56.0,41.0,29.66,North,-999,-999.0,-999.0,57,-99.99,,,-99.99,,2013-05-14 08:31:00,
2013-05-14 03:41:00,55.0,41.0,29.66,North,-999,-999.0,-999.0,58,-99.99,,,-99.99,,2013-05-14 08:41:00,
2013-05-14 03:52:00,55.0,41.0,29.66,North,-999,-999.0,-999.0,58,-99.99,,,-99.99,,2013-05-14 08:52:00,
2013-05-14 04:02:00,55.0,41.0,29.66,North,-999,-999.0,-999.0,59,-99.99,,,-99.99,,2013-05-14 09:02:00,
2013-05-14 04:11:00,55.0,41.0,29.66,North,-999,-999.0,-999.0,59,-99.99,,,-99.99,,2013-05-14 09:11:00,
2013-05-14 04:22:00,54.0,40.0,29.66,North,-999,-999.0,-999.0,60,-99.99,,,-99.99,,2013-05-14 09:22:00,
2013-05-14 04:32:00,53.0,40.0,29.66,North,-999,-999.0,-999.0,61,-99.99,,,-99.99,,2013-05-14 09:32:00,
2013-05-14 04:44:00,53.0,40.0,29.66,North,-999,-999.0,-999.0,61,-99.99,,,-99.99,,2013-05-14 09:44:00,
2013-05-14 04:54:00,53.0,41.0,29.66,North,-999,-999.0,-999.0,64,-99.99,,,-99.99,,2013-05-14 09:54:00,
2013-05-14 05:04:00,53.0,42.0,29.66,North,-999,-999.0,-999.0,65,-99.99,,,-99.99,,2013-05-14 10:04:00,
2013-05-14 05:14:00,53.0,42.0,29.66,North,-999,-999.0,-999.0,65,-99.99,,,-99.99,,2013-05-14 10:14:00,
2013-05-14 05:25:00,53.0,42.0,29.66,North,-999,-999.0,-999.0,65,-99.99,,,-99.99,,2013-05-14 10:25:00,
2013-05-14 05:33:00,53.0,42.0,29.66,North,-999,-999.0,-999.0,66,-99.99,,,-99.99,,2013-05-14 10:33:00,
2013-05-14 05:42:00,53.0,42.0,29.66,North,-999,-999.0,-999.0,66,-99.99,,,-99.99,,2013-05-14 10:42:00,
2013-05-14 05:52:00,52.0,41.0,29.66,North,-999,-999.0,-999.0,67,-99.99,,,-99.99,,2013-05-14 10:52:00,
2013-05-14 06:02:00,53.0,43.0,29.66,North,-999,-999.0,-999.0,68,-99.99,,,-99.99,,2013-05-14 11:02:00,
2013-05-14 06:11:00,53.0,43.0,29.66,North,-999,-999.0,-999.0,68,-99.99,,,-99.99,,2013-05-14 11:11:00,
2013-05-14 06:21:00,53.0,43.0,29.66,North,-999,-999.0,-999.0,69,-99.99,,,-99.99,,2013-05-14 11:21:00,
2013-05-14 06:32:00,53.0,43.0,29.66,North,-999,-999.0,-999.0,68,-99.99,,,-99.99,,2013-05-14 11:32:00,
2013-05-14 06:43:00,53.0,43.0,29.66,North,-999,-999.0,-999.0,68,-99.99,,,-99.99,,2013-05-14 11:43:00,
2013-05-14 06:52:00,57.0,45.0,29.66,North,-999,-999.0,-999.0,64,-99.99,,,-99.99,,2013-05-14 11:52:00,
2013-05-14 07:02:00,59.0,46.0,29.66,North,-999,-999.0,-999.0,62,-99.99,,,-99.99,,2013-05-14 12:02:00,
2013-05-14 07:12:00,59.0,46.0,29.66,North,-999,-999.0,-999.0,62,-99.99,,,-99.99,,2013-05-14 12:12:00,
2013-05-14 07:21:00,78.0,53.0,29.66,North,-999,-999.0,-999.0,42,-99.99,,,-99.99,,2013-05-14 12:21:00,
2013-05-14 07:32:00,86.0,56.0,29.66,North,-999,-999.0,-999.0,36,-99.99,,,-99.99,,2013-05-14 12:32:00,
2013-05-14 07:42:00,86.0,56.0,29.66,North,-999,-999.0,-999.0,36,-99.99,,,-99.99,,2013-05-14 12:42:00,
2013-05-14 07:52:00,89.0,54.0,29.66,North,-999,-999.0,-999.0,31,-99.99,,,-99.99,,2013-05-14 12:52:00,
2013-05-14 08:01:00,91.0,53.0,29.63,North,-999,-999.0,-999.0,28,-99.99,,,-99.99,,2013-05-14 13:01:00,
2013-05-14 08:22:00,93.0,54.0,29.63,North,-999,-999.0,-999.0,27,-99.99,,,-99.99,,2013-05-14 13:22:00,
2013-05-14 08:32:00,93.0,54.0,29.63,North,-999,-999.0,-999.0,27,-99.99,,,-99.99,,2013-05-14 13:32:00,
2013-05-14 09:01:00,79.0,48.0,29.63,North,-999,-999.0,-999.0,34,-99.99,,,-99.99,,2013-05-14 14:01:00,
2013-05-14 09:22:00,76.0,49.0,29.63,North,-999,-999.0,-999.0,38,-99.99,,,-99.99,,2013-05-14 14:22:00,
2013-05-14 09:31:00,75.0,50.0,29.63,North,-999,-999.0,-999.0,41,-99.99,,,-99.99,,2013-05-14 14:31:00,
2013-05-14 09:52:00,75.0,50.0,29.63,North,-999,-999.0,-999.0,42,-99.99,,,-99.99,,2013-05-14 14:52:00,
2013-05-14 10:01:00,75.0,50.0,29.63,North,-999,-999.0,-999.0,42,-99.99,,,-99.99,,2013-05-14 15:01:00,
2013-05-14 10:22:00,75.0,50.0,29.63,North,-999,-999.0,-999.0,41,-99.99,,,-99.99,,2013-05-14 15:22:00,
2013-05-14 10:33:00,76.0,51.0,29.63,North,-999,-999.0,-999.0,41,-99.99,,,-99.99,,2013-05-14 15:33:00,
2013-05-14 10:43:00,76.0,51.0,29.63,North,-999,-999.0,-999.0,41,-99.99,,,-99.99,,2013-05-14 15:43:00,
2013-05-14 10:53:00,76.0,51.0,29.63,North,-999,-999.0,-999.0,41,-99.99,,,-99.99,,2013-05-14 15:53:00,
2013-05-14 11:02:00,77.0,51.0,29.63,North,-999,-999.0,-999.0,41,-99.99,,,-99.99,,2013-05-14 16:02:00,
2013-05-14 11:12:00,77.0,51.0,29.63,North,-999,-999.0,-999.0,41,-99.99,,,-99.99,,2013-05-14 16:12:00,
2013-05-14 11:23:00,78.0,53.0,29.63,North,-999,-999.0,-999.0,42,-99.99,,,-99.99,,2013-05-14 16:23:00,
2013-05-14 11:33:00,82.0,55.0,29.63,North,-999,-999.0,-999.0,39,-99.99,,,-99.99,,2013-05-14 16:33:00,
2013-05-14 12:03:00,83.0,52.0,29.63,North,-999,-999.0,-999.0,34,-99.99,,,-99.99,,2013-05-14 17:03:00,
2013-05-14 12:13:00,83.0,52.0,29.63,North,-999,-999.0,-999.0,34,-99.99,,,-99.99,,2013-05-14 17:13:00,
2013-05-14 12:24:00,80.0,50.0,29.69,North,-999,-999.0,-999.0,35,-99.99,,,-99.99,,2013-05-14 17:24:00,
2013-05-14 12:33:00,83.0,50.0,29.69,North,-999,-999.0,-999.0,32,-99.99,,,-99.99,,2013-05-14 17:33:00,
2013-05-14 12:43:00,83.0,50.0,29.69,North,-999,-999.0,-999.0,32,-99.99,,,-99.99,,2013-05-14 17:43:00,
2013-05-14 12:52:00,81.0,49.0,29.66,North,-999,-999.0,-999.0,33,-99.99,,,-99.99,,2013-05-14 17:52:00,
2013-05-14 13:02:00,82.0,50.0,29.63,North,-999,-999.0,-999.0,33,-99.99,,,-99.99,,2013-05-14 18:02:00,
2013-05-14 13:12:00,82.0,50.0,29.63,North,-999,-999.0,-999.0,33,-99.99,,,-99.99,,2013-05-14 18:12:00,
2013-05-14 13:22:00,81.0,50.0,29.63,North,-999,-999.0,-999.0,34,-99.99,,,-99.99,,2013-05-14 18:22:00,
2013-05-14 13:32:00,84.0,52.0,29.63,North,-999,-999.0,-999.0,33,-99.99,,,-99.99,,2013-05-14 18:32:00,
2013-05-14 13:42:00,84.0,52.0,29.63,North,-999,-999.0,-999.0,33,-99.99,,,-99.99,,2013-05-14 18:42:00,
2013-05-14 13:52:00,86.0,50.0,29.63,North,-999,-999.0,-999.0,29,-99.99,,,-99.99,,2013-05-14 18:52:00,
2013-05-14 14:01:00,86.0,51.0,29.59,North,-999,-999.0,-999.0,30,-99.99,,,-99.99,,2013-05-14 19:01:00,
2013-05-14 14:12:00,86.0,51.0,29.59,North,-999,-999.0,-999.0,30,-99.99,,,-99.99,,2013-05-14 19:12:00,
2013-05-14 14:22:00,89.0,54.0,29.57,North,-999,-999.0,-999.0,30,-99.99,,,-99.99,,2013-05-14 19:22:00,
2013-05-14 14:32:00,89.0,53.0,29.54,North,-999,-999.0,-999.0,29,-99.99,,,-99.99,,2013-05-14 19:32:00,
2013-05-14 14:42:00,89.0,53.0,29.54,North,-999,-999.0,-999.0,29,-99.99,,,-99.99,,2013-05-14 19:42:00,
2013-05-14 14:53:00,88.0,51.0,29.51,North,-999,-999.0,-999.0,28,-99.99,,,-99.99,,2013-05-14 19:53:00,
2013-05-14 15:02:00,88.0,52.0,29.51,North,-999,-999.0,-999.0,29,-99.99,,,-99.99,,2013-05-14 20:02:00,
2013-05-14 15:11:00,88.0,52.0,29.51,North,-999,-999.0,-999.0,29,-99.99,,,-99.99,,2013-05-14 20:11:00,
2013-05-14 15:23:00,88.0,51.0,29.48,North,-999,-999.0,-999.0,28,-99.99,,,-99.99,,2013-05-14 20:23:00,
2013-05-14 15:32:00,88.0,51.0,29.48,North,-999,-999.0,-999.0,28,-99.99,,,-99.99,,2013-05-14 20:32:00,
2013-05-14 15:44:00,88.0,51.0,29.48,North,-999,-999.0,-999.0,28,-99.99,,,-99.99,,2013-05-14 20:44:00,
2013-05-14 15:52:00,88.0,51.0,29.48,North,-999,-999.0,-999.0,28,-99.99,,,-99.99,,2013-05-14 20:52:00,
2013-05-14 16:03:00,88.0,51.0,29.48,North,-999,-999.0,-999.0,28,-99.99,,,-99.99,,2013-05-14 21:03:00,
2013-05-14 16:23:00,88.0,51.0,29.44,North,-999,-999.0,-999.0,28,-99.99,,,-99.99,,2013-05-14 21:23:00,
2013-05-14 16:34:00,89.0,52.0,29.44,North,-999,-999.0,-999.0,28,-99.99,,,-99.99,,2013-05-14 21:34:00,
2013-05-14 16:43:00,89.0,52.0,29.44,North,-999,-999.0,-999.0,28,-99.99,,,-99.99,,2013-05-14 21:43:00,
2013-05-14 16:53:00,89.0,51.0,29.44,North,-999,-999.0,-999.0,27,-99.99,,,-99.99,,2013-05-14 21:53:00,
2013-05-14 17:03:00,88.0,51.0,29.41,North,-999,-999.0,-999.0,28,-99.99,,,-99.99,,2013-05-14 22:03:00,
2013-05-14 17:13:00,88.0,51.0,29.41,North,-999,-999.0,-999.0,28,-99.99,,,-99.99,,2013-05-14 22:13:00,
2013-05-14 17:24:00,86.0,50.0,29.41,North,-999,-999.0,-999.0,29,-99.99,,,-99.99,,2013-05-14 22:24:00,
2013-05-14 17:34:00,87.0,53.0,29.39,North,-999,-999.0,-999.0,31,-99.99,,,-99.99,,2013-05-14 22:34:00,
2013-05-14 17:45:00,87.0,53.0,29.39,North,-999,-999.0,-999.0,31,-99.99,,,-99.99,,2013-05-14 22:45:00,
2013-05-14 17:54:00,88.0,53.0,29.39,North,-999,-999.0,-999.0,30,-99.99,,,-99.99,,2013-05-14 22:54:00,
2013-05-14 18:03:00,89.0,53.0,29.36,North,-999,-999.0,-999.0,29,-99.99,,,-99.99,,2013-05-14 23:03:00,
2013-05-14 18:12:00,89.0,53.0,29.36,North,-999,-999.0,-999.0,29,-99.99,,,-99.99,,2013-05-14 23:12:00,
2013-05-14 18:21:00,89.0,53.0,29.36,North,-999,-999.0,-999.0,29,-99.99,,,-99.99,,2013-05-14 23:21:00,
2013-05-14 18:32:00,89.0,53.0,29.36,North,-999,-999.0,-999.0,29,-99.99,,,-99.99,,2013-05-14 23:32:00,
2013-05-14 18:44:00,89.0,53.0,29.36,North,-999,-999.0,-999.0,29,-99.99,,,-99.99,,2013-05-14 23:44:00,
2013-05-14 18:53:00,88.0,52.0,29.36,North,-999,-999.0,-999.0,29,-99.99,,,-99.99,,2013-05-14 23:53:00,
2013-05-14 19:02:00,87.0,52.0,29.36,North,-999,-999.0,-999.0,30,-99.99,,,-99.99,,2013-05-15 00:02:00,
2013-05-14 19:11:00,87.0,52.0,29.36,North,-999,-999.0,-999.0,30,-99.99,,,-99.99,,2013-05-15 00:11:00,
2013-05-14 19:21:00,86.0,52.0,29.36,North,-999,-999.0,-999.0,31,-99.99,,,-99.99,,2013-05-15 00:21:00,
2013-05-14 19:32:00,84.0,52.0,29.36,North,-999,-999.0,-999.0,33,-99.99,,,-99.99,,2013-05-15 00:32:00,
2013-05-14 19:42:00,84.0,52.0,29.36,North,-999,-999.0,-999.0,33,-99.99,,,-99.99,,2013-05-15 00:42:00,
2013-05-14 19:51:00,83.0,52.0,29.36,North,-999,-999.0,-999.0,35,-99.99,,,-99.99,,2013-05-15 00:51:00,
2013-05-14 20:01:00,81.0,52.0,29.36,North,-999,-999.0,-999.0,37,-99.99,,,-99.99,,2013-05-15 01:01:00,
2013-05-14 20:11:00,81.0,52.0,29.36,North,-999,-999.0,-999.0,37,-99.99,,,-99.99,,2013-05-15 01:11:00,
2013-05-14 20:21:00,79.0,53.0,29.36,North,-999,-999.0,-999.0,40,-99.99,,,-99.99,,2013-05-15 01:21:00,
2013-05-14 20:31:00,78.0,52.0,29.39,North,-999,-999.0,-999.0,41,-99.99,,,-99.99,,2013-05-15 01:31:00,
2013-05-14 20:52:00,78.0,52.0,29.39,North,-999,-999.0,-999.0,40,-99.99,,,-99.99,,2013-05-15 01:52:00,
2013-05-14 21:02:00,76.0,51.0,29.39,North,-999,-999.0,-999.0,42,-99.99,,,-99.99,,2013-05-15 02:02:00,
2013-05-14 21:21:00,75.0,50.0,29.39,North,-999,-999.0,-999.0,42,-99.99,,,-99.99,,2013-05-15 02:21:00,
2013-05-14 21:32:00,75.0,48.0,29.41,North,-999,-999.0,-999.0,38,-99.99,,,-99.99,,2013-05-15 02:32:00,
2013-05-14 21:52:00,76.0,45.0,29.41,North,-999,-999.0,-999.0,33,-99.99,,,-99.99,,2013-05-15 02:52:00,
2013-05-14 22:01:00,77.0,45.0,29.41,North,-999,-999.0,-999.0,32,-99.99,,,-99.99,,2013-05-15 03:01:00,
2013-05-14 22:12:00,77.0,45.0,29.41,North,-999,-999.0,-999.0,32,-99.99,,,-99.99,,2013-05-15 03:12:00,
2013-05-14 22:22:00,77.0,44.0,29.44,North,-999,-999.0,-999.0,31,-99.99,,,-99.99,,2013-05-15 03:22:00,
2013-05-14 22:33:00,78.0,44.0,29.44,North,-999,-999.0,-999.0,30,-99.99,,,-99.99,,2013-05-15 03:33:00,
2013-05-14 22:44:00,78.0,42.0,29.48,North,-999,-999.0,-999.0,28,-99.99,,,-99.99,,2013-05-15 03:44:00,
2013-05-14 22:54:00,78.0,42.0,29.48,North,-999,-999.0,-999.0,28,-99.99,,,-99.99,,2013-05-15 03:54:00,
2013-05-14 23:03:00,77.0,41.0,29.48,North,-999,-999.0,-999.0,28,-99.99,,,-99.99,,2013-05-15 04:03:00,
2013-05-14 23:12:00,77.0,41.0,29.48,North,-999,-999.0,-999.0,28,-99.99,,,-99.99,,2013-05-15 04:12:00,
2013-05-14 23:24:00,77.0,41.0,29.51,North,-999,-999.0,-999.0,28,-99.99,,,-99.99,,2013-05-15 04:24:00,
2013-05-14 23:33:00,74.0,40.0,29.51,North,-999,-999.0,-999.0,29,-99.99,,,-99.99,,2013-05-15 04:33:00,
2013-05-14 23:42:00,74.0,40.0,29.51,North,-999,-999.0,-999.0,29,-99.99,,,-99.99,,2013-05-15 04:42:00,
2013-05-14 23:52:00,73.0,40.0,29.51,North,-999,-999.0,-999.0,30,-99.99,,,-99.99,,2013-05-15 04:52:00,